createdAt,value
2019-03-16T00:00:34.822Z,0
2019-03-16T00:01:56.392Z,0
2019-03-16T00:03:06.996Z,0
2019-03-16T00:04:16.922Z,0
2019-03-16T00:05:26.892Z,0
2019-03-16T00:06:36.805Z,0
2019-03-16T00:07:46.481Z,0
2019-03-16T00:08:56.402Z,0
2019-03-16T00:10:06.423Z,0
2019-03-16T00:11:16.348Z,0
2019-03-16T00:12:26.263Z,0
2019-03-16T00:13:36.201Z,0
2019-03-16T00:14:45.870Z,0
2019-03-16T00:15:55.971Z,0
2019-03-16T00:17:05.911Z,0
2019-03-16T00:18:15.828Z,0
2019-03-16T00:19:25.769Z,0
2019-03-16T00:20:35.442Z,0
2019-03-16T00:21:45.463Z,0
2019-03-16T00:22:55.399Z,0
2019-03-16T00:24:05.339Z,0
2019-03-16T00:25:15.257Z,0
2019-03-16T00:26:25.190Z,0
2019-03-16T00:27:35.213Z,0
2019-03-16T00:28:45.135Z,0
2019-03-16T00:29:55.048Z,0
2019-03-16T00:31:04.976Z,0
2019-03-16T00:32:20.863Z,0
2019-03-16T00:33:30.899Z,0
2019-03-16T00:34:40.817Z,0
2019-03-16T00:35:50.736Z,0
2019-03-16T00:37:00.672Z,0
2019-03-16T00:38:10.584Z,0
2019-03-16T00:39:20.607Z,0
2019-03-16T00:40:30.539Z,0
2019-03-16T00:41:40.468Z,0
2019-03-16T00:42:50.393Z,0
2019-03-16T00:44:00.309Z,0
2019-03-16T00:45:10.266Z,0
2019-03-16T00:46:20.195Z,0
2019-03-16T00:47:30.113Z,0
2019-03-16T00:48:40.052Z,0
2019-03-16T00:49:49.971Z,0
2019-03-16T00:50:59.987Z,0
2019-03-16T00:52:09.901Z,0
2019-03-16T00:53:19.831Z,0
2019-03-16T00:54:29.744Z,0
2019-03-16T00:55:39.657Z,0
2019-03-16T00:56:49.576Z,0
2019-03-16T00:57:59.492Z,0
2019-03-16T00:59:09.411Z,0
2019-03-16T01:00:19.327Z,0
2019-03-16T01:01:29.240Z,0
2019-03-16T01:02:40.214Z,0
2019-03-16T01:03:50.216Z,0
2019-03-16T01:05:00.489Z,0
2019-03-16T01:06:10.437Z,0
2019-03-16T01:07:20.362Z,0
2019-03-16T01:08:30.314Z,0
2019-03-16T01:09:39.984Z,0
2019-03-16T01:10:51.412Z,0
2019-03-16T01:12:01.355Z,0
2019-03-16T01:13:11.285Z,0
2019-03-16T01:14:21.213Z,0
2019-03-16T01:15:31.132Z,0
2019-03-16T01:16:40.796Z,0
2019-03-16T01:17:50.714Z,0
2019-03-16T01:19:00.639Z,0
2019-03-16T01:20:10.663Z,0
2019-03-16T01:21:20.590Z,0
2019-03-16T01:22:30.299Z,0
2019-03-16T01:23:40.214Z,0
2019-03-16T01:24:50.160Z,0
2019-03-16T01:25:59.924Z,0
2019-03-16T01:27:09.844Z,0
2019-03-16T01:28:19.511Z,0
2019-03-16T01:29:29.428Z,0
2019-03-16T01:30:39.344Z,0
2019-03-16T01:31:49.313Z,0
2019-03-16T01:32:58.987Z,0
2019-03-16T01:34:08.988Z,0
2019-03-16T01:35:18.924Z,0
2019-03-16T01:36:28.836Z,0
2019-03-16T01:37:38.499Z,0
2019-03-16T01:38:48.432Z,0
2019-03-16T01:39:58.358Z,0
2019-03-16T01:41:08.292Z,0
2019-03-16T01:42:17.953Z,0
2019-03-16T01:43:28.017Z,0
2019-03-16T01:44:37.932Z,0
2019-03-16T01:45:47.850Z,0
2019-03-16T01:46:57.775Z,0
2019-03-16T01:48:07.716Z,0
2019-03-16T01:49:17.728Z,0
2019-03-16T01:50:29.043Z,0
2019-03-16T01:51:39.016Z,0
2019-03-16T01:52:48.945Z,0
2019-03-16T01:53:58.858Z,0
2019-03-16T01:55:08.778Z,0
2019-03-16T01:56:18.699Z,0
2019-03-16T01:57:28.621Z,0
2019-03-16T01:58:38.535Z,0
2019-03-16T01:59:48.457Z,0
2019-03-16T02:00:58.421Z,0
2019-03-16T02:02:08.385Z,0
2019-03-16T02:03:18.310Z,0
2019-03-16T02:04:28.229Z,0
2019-03-16T02:05:38.144Z,0
2019-03-16T02:06:47.811Z,0
2019-03-16T02:07:57.743Z,0
2019-03-16T02:09:07.667Z,0
2019-03-16T02:10:17.589Z,0
2019-03-16T02:11:27.509Z,0
2019-03-16T02:12:37.578Z,0
2019-03-16T02:13:47.494Z,0
2019-03-16T02:14:57.432Z,0
2019-03-16T02:16:17.560Z,0
2019-03-16T02:17:27.473Z,0
2019-03-16T02:18:37.490Z,0
2019-03-16T02:19:47.412Z,0
2019-03-16T02:20:57.330Z,0
2019-03-16T02:22:07.264Z,0
2019-03-16T02:23:17.192Z,0
2019-03-16T02:24:27.165Z,0
2019-03-16T02:25:37.081Z,0
2019-03-16T02:26:46.999Z,0
2019-03-16T02:27:57.060Z,0
2019-03-16T02:29:06.975Z,0
2019-03-16T02:30:16.994Z,0
2019-03-16T02:31:26.925Z,0
2019-03-16T02:32:36.606Z,0
2019-03-16T02:33:46.640Z,0
2019-03-16T02:34:56.577Z,0
2019-03-16T02:36:06.110Z,0
2019-03-16T02:37:15.567Z,0
2019-03-16T02:38:25.514Z,0
2019-03-16T02:39:35.457Z,0
2019-03-16T02:40:45.388Z,0
2019-03-16T02:41:55.429Z,0
2019-03-16T02:43:05.399Z,0
2019-03-16T02:44:18.659Z,0
2019-03-16T02:45:28.589Z,0
2019-03-16T02:46:38.531Z,0
2019-03-16T02:47:48.386Z,0
2019-03-16T02:48:58.073Z,0
2019-03-16T02:50:08.112Z,0
2019-03-16T02:51:18.089Z,0
2019-03-16T02:52:28.016Z,0
2019-03-16T02:53:38.069Z,0
2019-03-16T02:54:48.027Z,0
2019-03-16T02:55:57.989Z,0
2019-03-16T02:57:07.923Z,0
2019-03-16T02:58:17.614Z,0
2019-03-16T02:59:27.653Z,0
2019-03-16T03:00:37.581Z,0
2019-03-16T03:01:47.540Z,0
2019-03-16T03:02:57.599Z,0
2019-03-16T03:04:07.548Z,0
2019-03-16T03:05:17.571Z,0
2019-03-16T03:06:27.504Z,0
2019-03-16T03:07:37.428Z,0
2019-03-16T03:08:47.399Z,0
2019-03-16T03:09:57.338Z,0
2019-03-16T03:11:07.373Z,0
2019-03-16T03:12:17.313Z,0
2019-03-16T03:13:27.247Z,0
2019-03-16T03:14:37.203Z,0
2019-03-16T03:15:47.127Z,0
2019-03-16T03:16:57.183Z,0
2019-03-16T03:18:07.143Z,0
2019-03-16T03:19:17.214Z,0
2019-03-16T03:20:27.167Z,0
2019-03-16T03:21:37.111Z,0
2019-03-16T03:22:47.170Z,0
2019-03-16T03:23:57.157Z,0
2019-03-16T03:25:07.087Z,0
2019-03-16T03:26:17.068Z,0
2019-03-16T03:27:27.036Z,0
2019-03-16T03:28:37.074Z,0
2019-03-16T03:29:47.017Z,0
2019-03-16T03:30:56.994Z,0
2019-03-16T03:32:07.090Z,0
2019-03-16T03:33:17.045Z,0
2019-03-16T03:34:27.039Z,0
2019-03-16T03:35:37.023Z,0
2019-03-16T03:36:46.965Z,0
2019-03-16T03:37:56.889Z,0
2019-03-16T03:39:06.852Z,0
2019-03-16T03:40:16.764Z,0
2019-03-16T03:41:26.709Z,0
2019-03-16T03:42:36.635Z,0
2019-03-16T03:43:46.568Z,0
2019-03-16T03:44:56.501Z,0
2019-03-16T03:46:06.501Z,0
2019-03-16T03:47:16.429Z,0
2019-03-16T03:48:26.135Z,0
2019-03-16T03:49:36.081Z,0
2019-03-16T03:50:45.554Z,0
2019-03-16T03:51:55.537Z,0
2019-03-16T03:53:05.210Z,0
2019-03-16T03:54:15.163Z,0
2019-03-16T03:55:25.131Z,0
2019-03-16T03:56:35.074Z,0
2019-03-16T03:57:45.021Z,0
2019-03-16T03:58:54.951Z,0
2019-03-16T04:00:04.899Z,0
2019-03-16T04:01:14.836Z,0
2019-03-16T04:02:24.757Z,0
2019-03-16T04:03:34.795Z,0
2019-03-16T04:04:44.742Z,0
2019-03-16T04:05:54.679Z,0
2019-03-16T04:07:04.635Z,0
2019-03-16T04:08:14.587Z,0
2019-03-16T04:09:24.512Z,0
2019-03-16T04:10:34.439Z,0
2019-03-16T04:11:44.367Z,0
2019-03-16T04:12:54.438Z,0
2019-03-16T04:14:04.402Z,0
2019-03-16T04:15:14.495Z,0
2019-03-16T04:16:24.438Z,0
2019-03-16T04:17:34.383Z,0
2019-03-16T04:18:44.324Z,0
2019-03-16T04:19:54.005Z,0
2019-03-16T04:21:03.954Z,0
2019-03-16T04:22:13.910Z,0
2019-03-16T04:23:23.836Z,0
2019-03-16T04:24:33.822Z,0
2019-03-16T04:25:43.562Z,0
2019-03-16T04:26:53.598Z,0
2019-03-16T04:28:03.533Z,0
2019-03-16T04:29:13.457Z,0
2019-03-16T04:30:23.384Z,0
2019-03-16T04:31:33.380Z,0
2019-03-16T04:32:43.404Z,0
2019-03-16T04:33:53.341Z,0
2019-03-16T04:35:03.269Z,0
2019-03-16T04:36:13.220Z,0
2019-03-16T04:37:23.257Z,0
2019-03-16T04:38:33.283Z,0
2019-03-16T04:39:43.210Z,0
2019-03-16T04:40:53.126Z,0
2019-03-16T04:42:03.059Z,0
2019-03-16T04:43:12.978Z,0
2019-03-16T04:44:22.893Z,0
2019-03-16T04:45:32.833Z,0
2019-03-16T04:46:42.760Z,0
2019-03-16T04:47:52.686Z,0
2019-03-16T04:49:02.604Z,0
2019-03-16T04:50:12.598Z,0
2019-03-16T04:51:22.516Z,0
2019-03-16T04:52:32.431Z,0
2019-03-16T04:53:42.353Z,0
2019-03-16T04:54:52.285Z,4
2019-03-16T04:56:02.258Z,4
2019-03-16T04:57:12.182Z,4
2019-03-16T04:58:22.108Z,0
2019-03-16T04:59:32.038Z,4
2019-03-16T05:00:41.973Z,4
2019-03-16T05:01:51.952Z,4
2019-03-16T05:03:01.965Z,8
2019-03-16T05:04:11.647Z,8
2019-03-16T05:05:21.566Z,8
2019-03-16T05:06:31.491Z,8
2019-03-16T05:07:41.537Z,12
2019-03-16T05:08:51.463Z,12
2019-03-16T05:10:01.384Z,20
2019-03-16T05:11:14.581Z,20
2019-03-16T05:12:24.497Z,20
2019-03-16T05:13:34.496Z,24
2019-03-16T05:14:44.171Z,32
2019-03-16T05:15:55.773Z,36
2019-03-16T05:17:05.690Z,40
2019-03-16T05:18:15.607Z,48
2019-03-16T05:19:25.530Z,56
2019-03-16T05:20:35.461Z,60
2019-03-16T05:21:45.452Z,72
2019-03-16T05:22:55.365Z,80
2019-03-16T05:24:07.746Z,92
2019-03-16T05:25:17.769Z,108
2019-03-16T05:26:27.691Z,120
2019-03-16T05:27:37.621Z,132
2019-03-16T05:28:47.542Z,144
2019-03-16T05:29:57.463Z,164
2019-03-16T05:31:07.480Z,180
2019-03-16T05:32:17.398Z,196
2019-03-16T05:33:27.447Z,212
2019-03-16T05:34:37.386Z,232
2019-03-16T05:35:47.305Z,252
2019-03-16T05:37:00.934Z,272
2019-03-16T05:38:10.869Z,296
2019-03-16T05:39:20.539Z,320
2019-03-16T05:40:30.457Z,340
2019-03-16T05:41:40.409Z,364
2019-03-16T05:42:50.473Z,384
2019-03-16T05:44:00.412Z,412
2019-03-16T05:45:10.336Z,440
2019-03-16T05:46:20.310Z,468
2019-03-16T05:47:30.232Z,504
2019-03-16T05:48:40.299Z,536
2019-03-16T05:49:50.222Z,572
2019-03-16T05:51:02.367Z,608
2019-03-16T05:52:12.298Z,640
2019-03-16T05:53:22.211Z,664
2019-03-16T05:54:32.247Z,684
2019-03-16T05:55:41.938Z,704
2019-03-16T05:56:51.865Z,736
2019-03-16T05:58:01.801Z,780
2019-03-16T05:59:11.719Z,828
2019-03-16T06:00:21.743Z,880
2019-03-16T06:01:31.668Z,924
2019-03-16T06:02:41.629Z,960
2019-03-16T06:03:51.550Z,1004
2019-03-16T06:05:14.634Z,1048
2019-03-16T06:06:27.291Z,1076
2019-03-16T06:07:37.303Z,1120
2019-03-16T06:08:47.338Z,1176
2019-03-16T06:09:57.255Z,1236
2019-03-16T06:11:07.175Z,1288
2019-03-16T06:12:17.089Z,1348
2019-03-16T06:13:26.752Z,1408
2019-03-16T06:14:36.673Z,1468
2019-03-16T06:15:46.585Z,1536
2019-03-16T06:16:56.580Z,1608
2019-03-16T06:18:06.496Z,1692
2019-03-16T06:19:16.414Z,1772
2019-03-16T06:20:26.336Z,1844
2019-03-16T06:21:36.252Z,1932
2019-03-16T06:22:46.227Z,2004
2019-03-16T06:23:56.153Z,2088
2019-03-16T06:25:06.084Z,2164
2019-03-16T06:26:16.143Z,2204
2019-03-16T06:27:26.067Z,2228
2019-03-16T06:28:36.037Z,2276
2019-03-16T06:29:45.951Z,2356
2019-03-16T06:30:55.866Z,2440
2019-03-16T06:32:05.783Z,2512
2019-03-16T06:33:15.703Z,2568
2019-03-16T06:34:25.729Z,2628
2019-03-16T06:35:36.708Z,2712
2019-03-16T06:36:46.626Z,2828
2019-03-16T06:37:56.538Z,2924
2019-03-16T06:39:06.462Z,2996
2019-03-16T06:40:16.503Z,3060
2019-03-16T06:41:26.424Z,3092
2019-03-16T06:42:36.345Z,3124
2019-03-16T06:43:46.265Z,3164
2019-03-16T06:44:56.183Z,3192
2019-03-16T06:46:06.149Z,3208
2019-03-16T06:47:16.066Z,3272
2019-03-16T06:48:25.985Z,3372
2019-03-16T06:49:35.903Z,3472
2019-03-16T06:50:45.824Z,3564
2019-03-16T06:51:55.788Z,3628
2019-03-16T06:53:05.724Z,3632
2019-03-16T06:54:15.706Z,3612
2019-03-16T06:55:25.624Z,3660
2019-03-16T06:56:35.538Z,3732
2019-03-16T06:57:45.267Z,3836
2019-03-16T06:58:58.289Z,3956
2019-03-16T07:00:08.523Z,4068
2019-03-16T07:01:18.462Z,4152
2019-03-16T07:02:28.448Z,4216
2019-03-16T07:03:38.472Z,4288
2019-03-16T07:04:48.394Z,4424
2019-03-16T07:05:58.338Z,4580
2019-03-16T07:07:08.260Z,4644
2019-03-16T07:08:18.180Z,4708
2019-03-16T07:09:28.156Z,4880
2019-03-16T07:10:38.118Z,5120
2019-03-16T07:11:48.036Z,5276
2019-03-16T07:12:57.959Z,5324
2019-03-16T07:14:07.885Z,5288
2019-03-16T07:15:17.840Z,5304
2019-03-16T07:16:27.837Z,5344
2019-03-16T07:17:37.778Z,5392
2019-03-16T07:19:00.695Z,5492
2019-03-16T07:20:10.726Z,5640
2019-03-16T07:21:20.697Z,5776
2019-03-16T07:22:30.610Z,5884
2019-03-16T07:23:40.932Z,5980
2019-03-16T07:24:54.048Z,6072
2019-03-16T07:26:17.007Z,6188
2019-03-16T07:27:33.522Z,6360
2019-03-16T07:28:43.438Z,6480
2019-03-16T07:29:53.099Z,6544
2019-03-16T07:31:03.076Z,6556
2019-03-16T07:32:12.993Z,6584
2019-03-16T07:33:22.913Z,6660
2019-03-16T07:34:32.839Z,6736
2019-03-16T07:35:42.752Z,6788
2019-03-16T07:36:52.790Z,6824
2019-03-16T07:38:02.707Z,6876
2019-03-16T07:39:12.629Z,6944
2019-03-16T07:40:22.547Z,7128
2019-03-16T07:41:32.464Z,7372
2019-03-16T07:42:42.437Z,7480
2019-03-16T07:43:52.357Z,7496
2019-03-16T07:45:14.790Z,7564
2019-03-16T07:46:24.707Z,7688
2019-03-16T07:47:34.622Z,7796
2019-03-16T07:48:44.600Z,7860
2019-03-16T07:49:54.528Z,7976
2019-03-16T07:51:04.449Z,8140
2019-03-16T07:52:14.371Z,8268
2019-03-16T07:53:24.423Z,8356
2019-03-16T07:54:36.086Z,8440
2019-03-16T07:55:49.277Z,8496
2019-03-16T07:56:59.198Z,8480
2019-03-16T07:58:09.116Z,8484
2019-03-16T07:59:19.088Z,8552
2019-03-16T08:00:29.003Z,8652
2019-03-16T08:01:38.922Z,8784
2019-03-16T08:02:48.840Z,8924
2019-03-16T08:03:58.517Z,9044
2019-03-16T08:05:22.142Z,9188
2019-03-16T08:06:33.351Z,9336
2019-03-16T08:07:43.509Z,9452
2019-03-16T08:08:53.567Z,9556
2019-03-16T08:10:05.961Z,9692
2019-03-16T08:11:15.886Z,9772
2019-03-16T08:12:25.855Z,9796
2019-03-16T08:13:35.793Z,9856
2019-03-16T08:14:45.715Z,9948
2019-03-16T08:15:55.731Z,10080
2019-03-16T08:17:05.406Z,10204
2019-03-16T08:18:15.440Z,10292
2019-03-16T08:19:25.363Z,10416
2019-03-16T08:20:38.839Z,10624
2019-03-16T08:21:48.816Z,10760
2019-03-16T08:22:58.741Z,10756
2019-03-16T08:24:08.685Z,10720
2019-03-16T08:25:18.610Z,10728
2019-03-16T08:26:28.529Z,10772
2019-03-16T08:27:38.383Z,10892
2019-03-16T08:29:03.992Z,11260
2019-03-16T08:30:13.935Z,11624
2019-03-16T08:31:23.860Z,11932
2019-03-16T08:32:33.782Z,12188
2019-03-16T08:33:43.708Z,12304
2019-03-16T08:34:53.624Z,12232
2019-03-16T08:36:03.550Z,12108
2019-03-16T08:37:13.487Z,12120
2019-03-16T08:38:23.467Z,12080
2019-03-16T08:39:33.135Z,12096
2019-03-16T08:40:43.059Z,12384
2019-03-16T08:41:52.989Z,12772
2019-03-16T08:43:02.912Z,12944
2019-03-16T08:44:12.888Z,12892
2019-03-16T08:45:22.816Z,12796
2019-03-16T08:46:32.756Z,12664
2019-03-16T08:47:42.688Z,12480
2019-03-16T08:48:52.613Z,12388
2019-03-16T08:50:02.837Z,12420
2019-03-16T08:51:12.762Z,12544
2019-03-16T08:52:22.683Z,12716
2019-03-16T08:53:32.615Z,12848
2019-03-16T08:54:42.592Z,12940
2019-03-16T08:55:52.647Z,13044
2019-03-16T08:57:02.358Z,13100
2019-03-16T08:58:13.600Z,13128
2019-03-16T08:59:24.512Z,13180
2019-03-16T09:00:34.512Z,13312
2019-03-16T09:01:44.537Z,13528
2019-03-16T09:02:54.466Z,13752
2019-03-16T09:04:04.383Z,13900
2019-03-16T09:05:14.312Z,13952
2019-03-16T09:06:24.242Z,13952
2019-03-16T09:07:34.283Z,14028
2019-03-16T09:08:44.212Z,14160
2019-03-16T09:09:54.135Z,14316
2019-03-16T09:11:04.066Z,14376
2019-03-16T09:12:13.993Z,14376
2019-03-16T09:13:24.025Z,14424
2019-03-16T09:14:33.951Z,14524
2019-03-16T09:15:43.875Z,14600
2019-03-16T09:16:53.794Z,14728
2019-03-16T09:18:03.720Z,14784
2019-03-16T09:19:13.747Z,14856
2019-03-16T09:20:23.674Z,15080
2019-03-16T09:21:33.627Z,15380
2019-03-16T09:22:43.553Z,15576
2019-03-16T09:23:53.564Z,15676
2019-03-16T09:25:03.589Z,15716
2019-03-16T09:26:13.536Z,15660
2019-03-16T09:27:35.352Z,15568
2019-03-16T09:28:45.282Z,15400
2019-03-16T09:30:07.380Z,15300
2019-03-16T09:31:17.311Z,15624
2019-03-16T09:32:26.996Z,16196
2019-03-16T09:33:36.927Z,16656
2019-03-16T09:34:46.856Z,16880
2019-03-16T09:35:56.631Z,16876
2019-03-16T09:37:06.576Z,16752
2019-03-16T09:38:16.504Z,16712
2019-03-16T09:39:26.434Z,16860
2019-03-16T09:40:36.368Z,17408
2019-03-16T09:41:46.291Z,17664
2019-03-16T09:42:56.216Z,17856
2019-03-16T09:44:09.185Z,17888
2019-03-16T09:45:19.108Z,17888
2019-03-16T09:46:29.048Z,17760
2019-03-16T09:47:39.075Z,17600
2019-03-16T09:48:49.000Z,17696
2019-03-16T09:49:58.945Z,18048
2019-03-16T09:51:08.870Z,18336
2019-03-16T09:52:18.804Z,18272
2019-03-16T09:53:28.829Z,18080
2019-03-16T09:54:38.756Z,17984
2019-03-16T09:55:48.684Z,18048
2019-03-16T09:57:08.295Z,18208
2019-03-16T09:58:30.389Z,18272
2019-03-16T09:59:40.687Z,18304
2019-03-16T10:00:50.690Z,18144
2019-03-16T10:02:00.615Z,17920
2019-03-16T10:03:10.560Z,17920
2019-03-16T10:04:20.595Z,18080
2019-03-16T10:05:30.517Z,18240
2019-03-16T10:06:40.439Z,18496
2019-03-16T10:07:50.384Z,18688
2019-03-16T10:09:00.306Z,18656
2019-03-16T10:10:10.030Z,18528
2019-03-16T10:11:19.972Z,18368
2019-03-16T10:12:29.909Z,18464
2019-03-16T10:13:39.833Z,18560
2019-03-16T10:14:49.765Z,18656
2019-03-16T10:15:59.537Z,18816
2019-03-16T10:17:09.458Z,19072
2019-03-16T10:18:19.382Z,19328
2019-03-16T10:19:29.314Z,19296
2019-03-16T10:20:39.240Z,19296
2019-03-16T10:21:49.169Z,19360
2019-03-16T10:22:59.103Z,19072
2019-03-16T10:24:09.030Z,18816
2019-03-16T10:25:19.005Z,18912
2019-03-16T10:26:28.935Z,19264
2019-03-16T10:27:38.916Z,19680
2019-03-16T10:28:51.051Z,19968
2019-03-16T10:30:00.736Z,20000
2019-03-16T10:31:10.661Z,19840
2019-03-16T10:32:20.586Z,19712
2019-03-16T10:33:30.567Z,19872
2019-03-16T10:34:40.493Z,20064
2019-03-16T10:35:50.424Z,20224
2019-03-16T10:37:00.352Z,20256
2019-03-16T10:38:10.282Z,20256
2019-03-16T10:39:20.316Z,20256
2019-03-16T10:40:30.244Z,20224
2019-03-16T10:41:40.184Z,20384
2019-03-16T10:42:50.113Z,20896
2019-03-16T10:44:00.046Z,21408
2019-03-16T10:45:10.118Z,21888
2019-03-16T10:46:20.065Z,21888
2019-03-16T10:47:29.992Z,21664
2019-03-16T10:48:39.985Z,21344
2019-03-16T10:49:49.906Z,21120
2019-03-16T10:50:59.930Z,21504
2019-03-16T10:52:09.856Z,21856
2019-03-16T10:53:19.787Z,22272
2019-03-16T10:54:29.723Z,22560
2019-03-16T10:55:39.657Z,22400
2019-03-16T10:56:49.686Z,21824
2019-03-16T10:57:59.609Z,21312
2019-03-16T10:59:09.544Z,21280
2019-03-16T11:00:19.472Z,21856
2019-03-16T11:01:29.247Z,22784
2019-03-16T11:02:39.284Z,23456
2019-03-16T11:03:49.221Z,23392
2019-03-16T11:04:59.143Z,22752
2019-03-16T11:06:09.073Z,21536
2019-03-16T11:07:19.003Z,20320
2019-03-16T11:08:29.031Z,20096
2019-03-16T11:09:38.969Z,20800
2019-03-16T11:10:48.901Z,21312
2019-03-16T11:11:58.837Z,20992
2019-03-16T11:13:08.763Z,20224
2019-03-16T11:14:18.787Z,19936
2019-03-16T11:15:28.464Z,20288
2019-03-16T11:16:38.437Z,20832
2019-03-16T11:17:48.368Z,21280
2019-03-16T11:18:58.295Z,21376
2019-03-16T11:20:08.383Z,21440
2019-03-16T11:21:18.309Z,21344
2019-03-16T11:22:28.244Z,21344
2019-03-16T11:23:38.169Z,21792
2019-03-16T11:24:48.095Z,22432
2019-03-16T11:25:58.073Z,22816
2019-03-16T11:27:08.008Z,23808
2019-03-16T11:28:17.946Z,24352
2019-03-16T11:29:27.870Z,25376
2019-03-16T11:30:37.917Z,26432
2019-03-16T11:31:47.896Z,27360
2019-03-16T11:32:57.826Z,27328
2019-03-16T11:34:07.764Z,28096
2019-03-16T11:35:17.706Z,28288
2019-03-16T11:36:27.650Z,27520
2019-03-16T11:37:37.730Z,26848
2019-03-16T11:38:47.716Z,25760
2019-03-16T11:39:57.666Z,25696
2019-03-16T11:41:07.536Z,26624
2019-03-16T11:42:17.467Z,29664
2019-03-16T11:43:27.259Z,31136
2019-03-16T11:44:37.193Z,31488
2019-03-16T11:45:47.120Z,34208
2019-03-16T11:46:57.053Z,53024
2019-03-16T11:48:07.005Z,39680
2019-03-16T11:49:16.946Z,77120
2019-03-16T11:50:26.878Z,73280
2019-03-16T11:51:36.804Z,53024
2019-03-16T11:52:46.744Z,36352
2019-03-16T11:53:56.677Z,50336
2019-03-16T11:55:06.713Z,65440
2019-03-16T11:56:25.146Z,78752
2019-03-16T11:57:35.106Z,75168
2019-03-16T11:58:45.040Z,74144
2019-03-16T11:59:54.968Z,70528
2019-03-16T12:01:04.896Z,69856
2019-03-16T12:02:14.829Z,62752
2019-03-16T12:03:24.771Z,54272
2019-03-16T12:04:34.703Z,72480
2019-03-16T12:05:44.706Z,72544
2019-03-16T12:06:54.686Z,67520
2019-03-16T12:08:04.617Z,54624
2019-03-16T12:09:14.615Z,41056
2019-03-16T12:10:24.573Z,34912
2019-03-16T12:11:34.504Z,30784
2019-03-16T12:12:44.569Z,29472
2019-03-16T12:13:54.512Z,25888
2019-03-16T12:15:04.457Z,24864
2019-03-16T12:16:14.470Z,26880
2019-03-16T12:17:24.414Z,31904
2019-03-16T12:18:34.504Z,33600
2019-03-16T12:19:44.442Z,34400
2019-03-16T12:20:54.384Z,39136
2019-03-16T12:22:04.319Z,47552
2019-03-16T12:23:14.257Z,52128
2019-03-16T12:24:24.243Z,41760
2019-03-16T12:25:34.178Z,42624
2019-03-16T12:26:44.128Z,42176
2019-03-16T12:27:54.067Z,45728
2019-03-16T12:29:04.003Z,44480
2019-03-16T12:30:14.049Z,40448
2019-03-16T12:31:23.986Z,36320
2019-03-16T12:32:33.925Z,23008
2019-03-16T12:33:43.870Z,23520
2019-03-16T12:34:53.841Z,21888
2019-03-16T12:36:03.879Z,22880
2019-03-16T12:37:13.816Z,21920
2019-03-16T12:38:23.780Z,23232
2019-03-16T12:39:35.593Z,21632
2019-03-16T12:40:45.815Z,22016
2019-03-16T12:41:55.915Z,24576
2019-03-16T12:43:05.869Z,26976
2019-03-16T12:44:15.800Z,28256
2019-03-16T12:45:28.013Z,28864
2019-03-16T12:46:37.953Z,29824
2019-03-16T12:47:47.938Z,27360
2019-03-16T12:48:57.944Z,32992
2019-03-16T12:50:07.887Z,28960
2019-03-16T12:51:17.912Z,28064
2019-03-16T12:52:27.845Z,29760
2019-03-16T12:53:39.496Z,30912
2019-03-16T12:54:49.677Z,30880
2019-03-16T12:55:59.665Z,29984
2019-03-16T12:57:09.673Z,29472
2019-03-16T12:58:19.611Z,29792
2019-03-16T12:59:29.657Z,29696
2019-03-16T13:00:39.592Z,30048
2019-03-16T13:01:49.626Z,30400
2019-03-16T13:02:59.660Z,30464
2019-03-16T13:04:09.670Z,30560
2019-03-16T13:05:19.669Z,29568
2019-03-16T13:06:29.627Z,29440
2019-03-16T13:07:39.571Z,29088
2019-03-16T13:08:49.563Z,29056
2019-03-16T13:09:59.585Z,29440
2019-03-16T13:11:09.383Z,29344
2019-03-16T13:12:19.322Z,28160
2019-03-16T13:13:29.271Z,24160
2019-03-16T13:14:39.269Z,21376
2019-03-16T13:15:48.992Z,20512
2019-03-16T13:16:59.170Z,17220
2019-03-16T13:18:09.114Z,17080
2019-03-16T13:19:19.817Z,22592
2019-03-16T13:20:29.755Z,26016
2019-03-16T13:21:39.696Z,20864
2019-03-16T13:22:51.737Z,16148
2019-03-16T13:24:01.674Z,15336
2019-03-16T13:25:11.657Z,13728
2019-03-16T13:26:21.664Z,13840
2019-03-16T13:27:31.606Z,14384
2019-03-16T13:28:43.011Z,13824
2019-03-16T13:30:03.726Z,13968
2019-03-16T13:31:13.752Z,19008
2019-03-16T13:32:23.726Z,31040
2019-03-16T13:33:33.720Z,33824
2019-03-16T13:34:43.757Z,37120
2019-03-16T13:35:53.714Z,27296
2019-03-16T13:37:03.666Z,17216
2019-03-16T13:38:13.606Z,20640
2019-03-16T13:39:25.255Z,22112
2019-03-16T13:40:35.250Z,24000
2019-03-16T13:41:45.221Z,21920
2019-03-16T13:42:55.198Z,19744
2019-03-16T13:44:05.165Z,18528
2019-03-16T13:45:15.199Z,16244
2019-03-16T13:46:25.156Z,14008
2019-03-16T13:47:35.145Z,15236
2019-03-16T13:48:45.078Z,19424
2019-03-16T13:49:55.069Z,22848
2019-03-16T13:51:05.065Z,31136
2019-03-16T13:52:15.719Z,26144
2019-03-16T13:53:26.164Z,21152
2019-03-16T13:54:36.478Z,21344
2019-03-16T13:55:46.451Z,14444
2019-03-16T13:56:56.457Z,14712
2019-03-16T13:58:06.434Z,16588
2019-03-16T13:59:17.217Z,15672
2019-03-16T14:00:27.664Z,25280
2019-03-16T14:01:37.882Z,21312
2019-03-16T14:02:47.940Z,26912
2019-03-16T14:03:57.654Z,34976
2019-03-16T14:05:11.518Z,33568
2019-03-16T14:06:22.083Z,31616
2019-03-16T14:07:32.124Z,41952
2019-03-16T14:08:42.083Z,22368
2019-03-16T14:09:52.052Z,14120
2019-03-16T14:11:02.586Z,19360
2019-03-16T14:12:13.113Z,26336
2019-03-16T14:13:23.469Z,26432
2019-03-16T14:14:33.436Z,21280
2019-03-16T14:15:43.403Z,30400
2019-03-16T14:16:53.350Z,29568
2019-03-16T14:18:05.410Z,29120
2019-03-16T14:19:16.125Z,40608
2019-03-16T14:20:26.545Z,33664
2019-03-16T14:21:37.017Z,29568
2019-03-16T14:22:46.469Z,28544
2019-03-16T14:23:56.430Z,29888
2019-03-16T14:25:07.524Z,30976
2019-03-16T14:26:17.585Z,22304
2019-03-16T14:27:27.553Z,25216
2019-03-16T14:28:37.904Z,25728
2019-03-16T14:29:48.549Z,22816
2019-03-16T14:30:58.741Z,30752
2019-03-16T14:32:09.273Z,29408
2019-03-16T14:33:19.230Z,32032
2019-03-16T14:34:29.182Z,28832
2019-03-16T14:35:39.134Z,19584
2019-03-16T14:36:49.082Z,20928
2019-03-16T14:37:59.552Z,33952
2019-03-16T14:39:09.533Z,27136
2019-03-16T14:40:20.089Z,31744
2019-03-16T14:41:30.801Z,40320
2019-03-16T14:42:41.067Z,37504
2019-03-16T14:43:51.055Z,31968
2019-03-16T14:45:00.851Z,30048
2019-03-16T14:46:10.808Z,29184
2019-03-16T14:47:20.923Z,36064
2019-03-16T14:48:31.187Z,43616
2019-03-16T14:49:41.787Z,43392
2019-03-16T14:50:51.884Z,18368
2019-03-16T14:52:01.834Z,15792
2019-03-16T14:53:11.776Z,15824
2019-03-16T14:54:21.706Z,18880
2019-03-16T14:55:31.647Z,25536
2019-03-16T14:56:41.579Z,36064
2019-03-16T14:57:51.510Z,18272
2019-03-16T14:59:01.443Z,19488
2019-03-16T15:00:11.390Z,18912
2019-03-16T15:01:21.327Z,13064
2019-03-16T15:02:31.256Z,11972
2019-03-16T15:03:41.188Z,9820
2019-03-16T15:04:51.113Z,8640
2019-03-16T15:06:01.051Z,9028
2019-03-16T15:07:10.746Z,9972
2019-03-16T15:08:20.774Z,10668
2019-03-16T15:09:30.707Z,11280
2019-03-16T15:10:40.658Z,12116
2019-03-16T15:11:50.605Z,12460
2019-03-16T15:13:00.542Z,11824
2019-03-16T15:14:23.414Z,10352
2019-03-16T15:15:33.401Z,8988
2019-03-16T15:16:43.330Z,8372
2019-03-16T15:17:53.383Z,8644
2019-03-16T15:19:03.415Z,8692
2019-03-16T15:20:13.356Z,8300
2019-03-16T15:21:23.285Z,7884
2019-03-16T15:22:32.713Z,6876
2019-03-16T15:23:42.642Z,6552
2019-03-16T15:24:52.640Z,6800
2019-03-16T15:26:02.661Z,6632
2019-03-16T15:27:15.571Z,6476
2019-03-16T15:28:25.704Z,6140
2019-03-16T15:29:38.578Z,5896
2019-03-16T15:30:57.802Z,5508
2019-03-16T15:32:07.727Z,5304
2019-03-16T15:33:17.671Z,5172
2019-03-16T15:34:27.719Z,4892
2019-03-16T15:35:37.746Z,4600
2019-03-16T15:36:48.296Z,4540
2019-03-16T15:37:58.224Z,4652
2019-03-16T15:39:08.149Z,4772
2019-03-16T15:40:18.190Z,4704
2019-03-16T15:41:27.863Z,4544
2019-03-16T15:42:37.791Z,4396
2019-03-16T15:43:47.722Z,4288
2019-03-16T15:44:57.650Z,4272
2019-03-16T15:46:07.335Z,4316
2019-03-16T15:47:17.011Z,4380
2019-03-16T15:48:26.932Z,4356
2019-03-16T15:49:36.885Z,4224
2019-03-16T15:50:46.811Z,4120
2019-03-16T15:51:56.746Z,4164
2019-03-16T15:53:06.674Z,4292
2019-03-16T15:54:16.665Z,4520
2019-03-16T15:55:26.589Z,4700